Time,TemperatureF,DewpointF,PressureIn,WindDirection,WindDirectionDegrees,WindSpeedMPH,WindSpeedGustMPH,Humidity,HourlyPrecipIn,Conditions,Clouds,dailyrainin,SoftwareType,DateUTC
2013-02-21 00:12:00,23.6,9.0,30.18,NW,321,7.0,-999.0,55,-99.99,,,0.00,weatherlink.com 1.10,2013-02-21 05:12:00,
2013-02-21 00:27:00,23.3,9.0,30.18,NW,325,6.0,-999.0,55,-99.99,,,0.00,weatherlink.com 1.10,2013-02-21 05:27:00,
2013-02-21 00:42:00,23.2,9.0,30.20,NW,313,8.0,-999.0,56,-99.99,,,0.00,weatherlink.com 1.10,2013-02-21 05:42:00,
2013-02-21 00:57:00,22.4,9.0,30.19,NW,326,4.0,-999.0,57,-99.99,,,0.00,weatherlink.com 1.10,2013-02-21 05:57:00,
2013-02-21 01:12:00,21.9,9.0,30.19,NNW,344,6.0,-999.0,58,-99.99,,,0.00,weatherlink.com 1.10,2013-02-21 06:12:00,
2013-02-21 01:27:00,21.6,9.0,30.18,WNW,293,5.0,-999.0,58,-99.99,,,0.00,weatherlink.com 1.10,2013-02-21 06:27:00,
2013-02-21 01:42:00,21.4,9.0,30.19,WNW,286,10.0,-999.0,59,-99.99,,,0.00,weatherlink.com 1.10,2013-02-21 06:42:00,
2013-02-21 01:57:00,21.4,9.0,30.19,NNW,338,2.0,-999.0,58,-99.99,,,0.00,weatherlink.com 1.10,2013-02-21 06:57:00,
2013-02-21 02:12:00,21.3,8.0,30.19,NW,306,2.0,-999.0,58,-99.99,,,0.00,weatherlink.com 1.10,2013-02-21 07:12:00,
2013-02-21 02:27:00,21.4,8.0,30.20,WSW,240,2.0,-999.0,56,-99.99,,,0.00,weatherlink.com 1.10,2013-02-21 07:27:00,
2013-02-21 02:42:00,21.6,8.0,30.21,NW,306,4.0,-999.0,55,-99.99,,,0.00,weatherlink.com 1.10,2013-02-21 07:42:00,
2013-02-21 02:57:00,21.9,7.0,30.20,WNW,287,1.0,-999.0,53,-99.99,,,0.00,weatherlink.com 1.10,2013-02-21 07:57:00,
2013-02-21 03:12:00,22.2,7.0,30.20,WNW,301,5.0,-999.0,53,-99.99,,,0.00,weatherlink.com 1.10,2013-02-21 08:12:00,
2013-02-21 03:27:00,23.0,7.0,30.19,WNW,295,5.0,-999.0,51,-99.99,,,0.00,weatherlink.com 1.10,2013-02-21 08:27:00,
2013-02-21 03:42:00,23.2,6.0,30.19,NNW,329,4.0,-999.0,48,-99.99,,,0.00,weatherlink.com 1.10,2013-02-21 08:42:00,
2013-02-21 03:57:00,23.3,6.0,30.20,NW,319,5.0,-999.0,48,-99.99,,,0.00,weatherlink.com 1.10,2013-02-21 08:57:00,
2013-02-21 04:12:00,23.3,6.0,30.19,WNW,300,3.0,-999.0,48,-99.99,,,0.00,weatherlink.com 1.10,2013-02-21 09:12:00,
2013-02-21 04:27:00,23.5,6.0,30.19,NW,322,2.0,-999.0,47,-99.99,,,0.00,weatherlink.com 1.10,2013-02-21 09:27:00,
2013-02-21 04:42:00,23.9,5.0,30.19,North,355,0.0,-999.0,45,-99.99,,,0.00,weatherlink.com 1.10,2013-02-21 09:42:00,
2013-02-21 04:57:00,23.9,5.0,30.20,NW,310,3.0,-999.0,44,-99.99,,,0.00,weatherlink.com 1.10,2013-02-21 09:57:00,
2013-02-21 05:12:00,23.6,5.0,30.20,NW,321,0.0,-999.0,46,-99.99,,,0.00,weatherlink.com 1.10,2013-02-21 10:12:00,
2013-02-21 05:27:00,23.8,4.0,30.21,WNW,298,2.0,-999.0,43,-99.99,,,0.00,weatherlink.com 1.10,2013-02-21 10:27:00,
2013-02-21 05:42:00,24.5,4.0,30.24,WNW,292,3.0,-999.0,42,-99.99,,,0.00,weatherlink.com 1.10,2013-02-21 10:42:00,
2013-02-21 05:57:00,24.5,4.0,30.24,NNW,338,3.0,-999.0,42,-99.99,,,0.00,weatherlink.com 1.10,2013-02-21 10:57:00,
2013-02-21 06:12:00,24.2,4.0,30.23,NNW,331,5.0,-999.0,42,-99.99,,,0.00,weatherlink.com 1.10,2013-02-21 11:12:00,
2013-02-21 06:27:00,24.4,4.0,30.25,NNW,330,5.0,-999.0,42,-99.99,,,0.00,weatherlink.com 1.10,2013-02-21 11:27:00,
2013-02-21 06:42:00,24.7,4.0,30.26,NNW,328,6.0,-999.0,41,-99.99,,,0.00,weatherlink.com 1.10,2013-02-21 11:42:00,
2013-02-21 06:57:00,25.0,3.0,30.25,NW,306,8.0,-999.0,39,-99.99,,,0.00,weatherlink.com 1.10,2013-02-21 11:57:00,
2013-02-21 07:12:00,25.4,3.0,30.26,NW,315,6.0,-999.0,38,-99.99,,,0.00,weatherlink.com 1.10,2013-02-21 12:12:00,
2013-02-21 07:27:00,25.6,2.0,30.26,NW,310,8.0,-999.0,36,-99.99,,,0.00,weatherlink.com 1.10,2013-02-21 12:27:00,
2013-02-21 07:42:00,25.8,2.0,30.27,NW,311,3.0,-999.0,36,-99.99,,,0.00,weatherlink.com 1.10,2013-02-21 12:42:00,
2013-02-21 07:57:00,26.1,2.0,30.27,WNW,302,3.0,-999.0,35,-99.99,,,0.00,weatherlink.com 1.10,2013-02-21 12:57:00,
2013-02-21 08:13:00,26.4,2.0,30.28,WNW,294,2.0,-999.0,35,-99.99,,,0.00,weatherlink.com 1.10,2013-02-21 13:13:00,
2013-02-21 08:28:00,26.9,3.0,30.29,NNE,19,3.0,-999.0,35,-99.99,,,0.00,weatherlink.com 1.10,2013-02-21 13:28:00,
2013-02-21 08:43:00,27.8,1.0,30.29,West,269,1.0,-999.0,32,-99.99,,,0.00,weatherlink.com 1.10,2013-02-21 13:43:00,
2013-02-21 08:58:00,28.8,3.0,30.31,West,270,0.0,-999.0,33,-99.99,,,0.00,weatherlink.com 1.10,2013-02-21 13:58:00,
2013-02-21 09:13:00,29.5,2.0,30.29,West,270,1.0,-999.0,30,-99.99,,,0.00,weatherlink.com 1.10,2013-02-21 14:13:00,
2013-02-21 09:28:00,30.1,2.0,30.29,NNW,332,1.0,-999.0,30,-99.99,,,0.00,weatherlink.com 1.10,2013-02-21 14:28:00,
2013-02-21 09:43:00,30.9,1.0,30.30,NNW,333,0.0,-999.0,28,-99.99,,,0.00,weatherlink.com 1.10,2013-02-21 14:43:00,
2013-02-21 09:58:00,31.9,3.0,30.30,NNW,333,4.0,-999.0,29,-99.99,,,0.00,weatherlink.com 1.10,2013-02-21 14:58:00,
2013-02-21 10:13:00,33.1,3.0,30.30,NNW,333,0.0,-999.0,28,-99.99,,,0.00,weatherlink.com 1.10,2013-02-21 15:13:00,
2013-02-21 10:28:00,34.9,2.0,30.28,NNW,336,0.0,-999.0,25,-99.99,,,0.00,weatherlink.com 1.10,2013-02-21 15:28:00,
2013-02-21 10:43:00,36.3,3.0,30.30,NNW,336,0.0,-999.0,24,-99.99,,,0.00,weatherlink.com 1.10,2013-02-21 15:43:00,
2013-02-21 10:58:00,38.0,2.0,30.29,NNW,336,0.0,-999.0,22,-99.99,,,0.00,weatherlink.com 1.10,2013-02-21 15:58:00,
2013-02-21 11:13:00,40.1,3.0,30.28,WNW,286,0.0,-999.0,21,-99.99,,,0.00,weatherlink.com 1.10,2013-02-21 16:13:00,
2013-02-21 11:28:00,41.3,2.0,30.29,WNW,288,2.0,-999.0,19,-99.99,,,0.00,weatherlink.com 1.10,2013-02-21 16:28:00,
2013-02-21 11:44:00,41.8,3.0,30.27,WNW,286,5.0,-999.0,20,-99.99,,,0.00,weatherlink.com 1.10,2013-02-21 16:44:00,
2013-02-21 11:59:00,43.1,3.0,30.26,West,268,3.0,-999.0,19,-99.99,,,0.00,weatherlink.com 1.10,2013-02-21 16:59:00,
2013-02-21 12:14:00,44.3,1.0,30.25,West,270,0.0,-999.0,16,-99.99,,,0.00,weatherlink.com 1.10,2013-02-21 17:14:00,
2013-02-21 12:29:00,45.2,3.0,30.25,West,280,3.0,-999.0,17,-99.99,,,0.00,weatherlink.com 1.10,2013-02-21 17:29:00,
2013-02-21 12:44:00,45.8,2.0,30.23,NNW,332,3.0,-999.0,16,-99.99,,,0.00,weatherlink.com 1.10,2013-02-21 17:44:00,
2013-02-21 12:59:00,46.7,3.0,30.22,West,274,0.0,-999.0,16,-99.99,,,0.00,weatherlink.com 1.10,2013-02-21 17:59:00,
2013-02-21 13:14:00,48.8,6.0,30.21,West,270,1.0,-999.0,17,-99.99,,,0.00,weatherlink.com 1.10,2013-02-21 18:14:00,
2013-02-21 13:29:00,48.5,4.0,30.21,West,267,1.0,-999.0,16,-99.99,,,0.00,weatherlink.com 1.10,2013-02-21 18:29:00,
2013-02-21 13:44:00,48.6,7.0,30.21,ENE,78,0.0,-999.0,18,-99.99,,,0.00,weatherlink.com 1.10,2013-02-21 18:44:00,
2013-02-21 13:59:00,48.9,8.0,30.20,WNW,282,1.0,-999.0,19,-99.99,,,0.00,weatherlink.com 1.10,2013-02-21 18:59:00,
2013-02-21 14:14:00,49.2,10.0,30.19,SW,218,0.0,-999.0,20,-99.99,,,0.00,weatherlink.com 1.10,2013-02-21 19:14:00,
2013-02-21 14:29:00,49.5,11.0,30.20,ESE,119,0.0,-999.0,21,-99.99,,,0.00,weatherlink.com 1.10,2013-02-21 19:29:00,
2013-02-21 14:44:00,48.5,11.0,30.20,ESE,119,1.0,-999.0,22,-99.99,,,0.00,weatherlink.com 1.10,2013-02-21 19:44:00,
2013-02-21 14:59:00,48.2,11.0,30.21,ESE,117,0.0,-999.0,22,-99.99,,,0.00,weatherlink.com 1.10,2013-02-21 19:59:00,
2013-02-21 15:15:00,48.9,11.0,30.20,ESE,117,0.0,-999.0,22,-99.99,,,0.00,weatherlink.com 1.10,2013-02-21 20:15:00,
2013-02-21 15:30:00,49.1,13.0,30.20,ESE,118,1.0,-999.0,23,-99.99,,,0.00,weatherlink.com 1.10,2013-02-21 20:30:00,
2013-02-21 15:45:00,49.4,12.0,30.21,SSE,155,0.0,-999.0,22,-99.99,,,0.00,weatherlink.com 1.10,2013-02-21 20:45:00,
2013-02-21 16:00:00,48.8,12.0,30.20,ESE,113,1.0,-999.0,23,-99.99,,,0.00,weatherlink.com 1.10,2013-02-21 21:00:00,
2013-02-21 16:15:00,48.3,13.0,30.21,ESE,113,1.0,-999.0,24,-99.99,,,0.00,weatherlink.com 1.10,2013-02-21 21:15:00,
2013-02-21 16:30:00,47.3,13.0,30.22,ESE,113,0.0,-999.0,25,-99.99,,,0.00,weatherlink.com 1.10,2013-02-21 21:30:00,
2013-02-21 16:45:00,46.2,13.0,30.22,ESE,113,0.0,-999.0,26,-99.99,,,0.00,weatherlink.com 1.10,2013-02-21 21:45:00,
2013-02-21 17:00:00,44.8,13.0,30.24,ESE,113,0.0,-999.0,27,-99.99,,,0.00,weatherlink.com 1.10,2013-02-21 22:00:00,
2013-02-21 17:15:00,43.6,12.0,30.24,ESE,119,0.0,-999.0,28,-99.99,,,0.00,weatherlink.com 1.10,2013-02-21 22:15:00,
2013-02-21 17:30:00,42.5,11.0,30.24,ESE,119,0.0,-999.0,28,-99.99,,,0.00,weatherlink.com 1.10,2013-02-21 22:30:00,
2013-02-21 17:45:00,41.6,11.0,30.24,ESE,119,0.0,-999.0,28,-99.99,,,0.00,weatherlink.com 1.10,2013-02-21 22:45:00,
2013-02-21 18:00:00,40.8,11.0,30.25,ESE,119,0.0,-999.0,29,-99.99,,,0.00,weatherlink.com 1.10,2013-02-21 23:00:00,
2013-02-21 18:15:00,39.9,10.0,30.26,ESE,119,0.0,-999.0,29,-99.99,,,0.00,weatherlink.com 1.10,2013-02-21 23:15:00,
2013-02-21 18:30:00,39.3,12.0,30.27,ESE,119,0.0,-999.0,33,-99.99,,,0.00,weatherlink.com 1.10,2013-02-21 23:30:00,
2013-02-21 18:46:00,38.9,13.0,30.28,ESE,119,0.0,-999.0,35,-99.99,,,0.00,weatherlink.com 1.10,2013-02-21 23:46:00,
2013-02-21 19:01:00,38.8,14.0,30.28,ESE,119,0.0,-999.0,37,-99.99,,,0.00,weatherlink.com 1.10,2013-02-22 00:01:00,
2013-02-21 19:16:00,38.6,15.0,30.27,ESE,119,0.0,-999.0,38,-99.99,,,0.00,weatherlink.com 1.10,2013-02-22 00:16:00,
2013-02-21 19:31:00,38.5,14.0,30.27,ESE,119,0.0,-999.0,37,-99.99,,,0.00,weatherlink.com 1.10,2013-02-22 00:31:00,
2013-02-21 19:46:00,38.3,14.0,30.28,ESE,119,2.0,-999.0,37,-99.99,,,0.00,weatherlink.com 1.10,2013-02-22 00:46:00,
2013-02-21 20:01:00,38.2,13.0,30.27,ESE,119,0.0,-999.0,36,-99.99,,,0.00,weatherlink.com 1.10,2013-02-22 01:01:00,
2013-02-21 20:16:00,37.9,14.0,30.27,ESE,119,0.0,-999.0,37,-99.99,,,0.00,weatherlink.com 1.10,2013-02-22 01:16:00,
2013-02-21 20:31:00,37.8,13.0,30.27,ESE,119,0.0,-999.0,37,-99.99,,,0.00,weatherlink.com 1.10,2013-02-22 01:31:00,
2013-02-21 20:46:00,37.6,14.0,30.27,ESE,119,0.0,-999.0,38,-99.99,,,0.00,weatherlink.com 1.10,2013-02-22 01:46:00,
2013-02-21 21:01:00,37.5,14.0,30.27,ESE,119,0.0,-999.0,39,-99.99,,,0.00,weatherlink.com 1.10,2013-02-22 02:01:00,
2013-02-21 21:16:00,37.6,13.0,30.27,ESE,119,0.0,-999.0,37,-99.99,,,0.00,weatherlink.com 1.10,2013-02-22 02:16:00,
2013-02-21 21:31:00,37.6,15.0,30.27,ESE,119,1.0,-999.0,39,-99.99,,,0.00,weatherlink.com 1.10,2013-02-22 02:31:00,
2013-02-21 21:46:00,37.3,14.0,30.26,ESE,119,0.0,-999.0,38,-99.99,,,0.00,weatherlink.com 1.10,2013-02-22 02:46:00,
2013-02-21 22:02:00,37.3,12.0,30.26,ESE,119,1.0,-999.0,36,-99.99,,,0.00,weatherlink.com 1.10,2013-02-22 03:02:00,
2013-02-21 22:17:00,37.2,13.0,30.28,ESE,119,1.0,-999.0,37,-99.99,,,0.00,weatherlink.com 1.10,2013-02-22 03:17:00,
2013-02-21 22:32:00,37.0,16.0,30.27,ESE,119,0.0,-999.0,43,-99.99,,,0.00,weatherlink.com 1.10,2013-02-22 03:32:00,
2013-02-21 22:47:00,36.0,20.0,30.28,ENE,58,0.0,-999.0,52,-99.99,,,0.00,weatherlink.com 1.10,2013-02-22 03:47:00,
2013-02-21 23:02:00,35.0,20.0,30.29,SE,128,0.0,-999.0,54,-99.99,,,0.00,weatherlink.com 1.10,2013-02-22 04:02:00,
2013-02-21 23:17:00,34.4,21.0,30.29,SE,128,0.0,-999.0,58,-99.99,,,0.00,weatherlink.com 1.10,2013-02-22 04:17:00,
2013-02-21 23:32:00,33.7,23.0,30.28,SE,128,0.0,-999.0,65,-99.99,,,0.00,weatherlink.com 1.10,2013-02-22 04:32:00,
2013-02-21 23:47:00,32.9,24.0,30.29,SE,128,0.0,-999.0,69,-99.99,,,0.00,weatherlink.com 1.10,2013-02-22 04:47:00,